Time;durP1;ratioP1;P1;durP2;ratioP2;P2;SDS_P1;SDS_P2;PMS_P1;PMS_P2;Temp;Humidity;BMP_temperature;BMP_pressure;BME280_temperature;BME280_humidity;BME280_pressure;Samples;Min_cycle;Max_cycle;Signal;HPM_P1;HPM_P2
2022/10/11 00:00:36;;;;;;;18.23;3.30;;;8.50;99.90;;;;;;6273854;22;20023;-81
2022/10/11 00:03:03;;;;;;;15.70;3.95;;;8.60;99.90;;;;;;6267269;22;20063;-80
2022/10/11 00:05:29;;;;;;;16.52;3.80;;;8.50;99.90;;;;;;6259927;23;20063;-80
2022/10/11 00:07:54;;;;;;;18.65;3.85;;;8.40;99.90;;;;;;6256770;22;20015;-80
2022/10/11 00:10:20;;;;;;;19.25;3.60;;;8.50;99.90;;;;;;6254579;23;20008;-80
2022/10/11 00:12:46;;;;;;;19.95;4.03;;;8.40;99.90;;;;;;6254900;23;20016;-80
2022/10/11 00:15:15;;;;;;;17.67;3.67;;;8.40;99.90;;;;;;6254066;23;20016;-80
2022/10/11 00:17:41;;;;;;;13.55;3.03;;;8.40;99.90;;;;;;6251832;23;20081;-81
2022/10/11 00:20:07;;;;;;;15.90;3.67;;;8.30;99.90;;;;;;6251969;23;20020;-81
2022/10/11 00:22:34;;;;;;;17.40;3.58;;;8.30;99.90;;;;;;6251378;22;20008;-80
2022/10/11 00:25:00;;;;;;;21.02;4.32;;;8.30;99.90;;;;;;6251684;22;20038;-80
2022/10/11 00:27:26;;;;;;;21.02;3.42;;;8.30;99.90;;;;;;6250466;23;20020;-81
2022/10/11 00:29:52;;;;;;;18.42;3.40;;;8.30;99.90;;;;;;6249856;23;20087;-80
2022/10/11 00:32:17;;;;;;;16.63;3.70;;;8.30;99.90;;;;;;6248521;23;20020;-81
2022/10/11 00:34:43;;;;;;;19.00;3.55;;;8.30;99.90;;;;;;6248093;23;20310;-80
2022/10/11 00:37:09;;;;;;;17.08;4.18;;;8.20;99.90;;;;;;6250307;23;20043;-80
2022/10/11 00:39:35;;;;;;;18.65;3.72;;;8.20;99.90;;;;;;6251624;22;20008;-82
2022/10/11 00:42:00;;;;;;;20.33;3.97;;;8.20;99.90;;;;;;6251088;22;20043;-80
2022/10/11 00:44:28;;;;;;;18.60;3.17;;;8.10;99.90;;;;;;6247697;23;20064;-81
2022/10/11 00:47:11;;;;;;;17.25;3.63;;;8.10;99.90;;;;;;6249203;22;20317;-80
2022/10/11 00:49:53;;;;;;;16.02;3.78;;;8.10;99.90;;;;;;6247892;22;20082;-81
2022/10/11 00:52:27;;;;;;;18.15;3.17;;;8.10;99.90;;;;;;6248420;22;20016;-80
2022/10/11 00:54:55;;;;;;;19.50;3.97;;;8.00;99.90;;;;;;6222733;23;20027;-80
2022/10/11 00:57:23;;;;;;;20.77;4.13;;;8.00;99.90;;;;;;6250094;22;20020;-80
2022/10/11 00:59:52;;;;;;;18.83;4.22;;;8.00;99.90;;;;;;6250431;22;20524;-81
2022/10/11 01:02:19;;;;;;;14.52;3.85;;;8.00;99.90;;;;;;6223585;23;20441;-80
2022/10/11 01:04:45;;;;;;;19.95;4.30;;;8.10;99.90;;;;;;6251128;22;20113;-80
2022/10/11 01:07:11;;;;;;;13.75;3.47;;;8.10;99.90;;;;;;6249497;23;20122;-80
2022/10/11 01:09:37;;;;;;;18.05;4.22;;;8.10;99.90;;;;;;6250089;22;20035;-80
2022/10/11 01:12:11;;;;;;;22.58;4.43;;;8.10;99.90;;;;;;6249040;23;20675;-80
2022/10/11 01:14:45;;;;;;;15.02;4.10;;;8.00;99.90;;;;;;6247960;22;20027;-80
2022/10/11 01:17:22;;;;;;;19.27;4.45;;;8.00;99.90;;;;;;6248449;23;20087;-79
2022/10/11 01:20:15;;;;;;;14.48;4.30;;;8.00;99.90;;;;;;6249392;22;20099;-80
2022/10/11 01:22:49;;;;;;;16.88;3.33;;;8.00;99.90;;;;;;6248126;22;20369;-80
2022/10/11 01:25:40;;;;;;;15.15;3.63;;;8.00;99.90;;;;;;6248866;23;20012;-81
2022/10/11 01:28:35;;;;;;;14.27;2.90;;;8.00;99.90;;;;;;6249220;23;20012;-81
2022/10/11 01:31:12;;;;;;;19.52;3.30;;;8.00;99.90;;;;;;6249992;22;20032;-81
2022/10/11 01:33:43;;;;;;;12.70;3.65;;;8.00;99.90;;;;;;6247264;22;20016;-81
2022/10/11 01:46:32;;;;;;;16.40;2.72;;;8.00;99.90;;;;;;6254895;22;20016;-87
2022/10/11 01:49:00;;;;;;;16.50;3.13;;;8.10;99.90;;;;;;6229452;22;20341;-87
2022/10/11 01:51:30;;;;;;;19.80;3.22;;;8.20;99.90;;;;;;6290742;22;20043;-88
2022/10/11 01:54:26;;;;;;;15.18;3.08;;;7.90;99.90;;;;;;6260221;22;20336;-87
2022/10/11 01:57:13;;;;;;;15.68;2.80;;;7.90;99.90;;;;;;6280742;22;20012;-87
2022/10/11 02:00:05;;;;;;;15.25;2.38;;;7.90;99.90;;;;;;6280638;22;20015;-87
2022/10/11 02:02:45;;;;;;;21.80;2.67;;;9.00;99.90;;;;;;6280413;22;20027;-87
2022/10/11 02:05:18;;;;;;;16.60;2.95;;;7.90;99.90;;;;;;6280215;22;20026;-87
2022/10/11 02:08:08;;;;;;;14.77;2.60;;;7.90;99.90;;;;;;6279938;22;20091;-86
2022/10/11 02:10:57;;;;;;;12.15;3.13;;;7.80;99.90;;;;;;6227478;22;20109;-88
2022/10/11 02:13:38;;;;;;;17.95;3.00;;;7.80;99.90;;;;;;6279780;22;20019;-87
2022/10/11 02:16:09;;;;;;;14.55;2.53;;;7.80;99.90;;;;;;6227643;22;20023;-88
2022/10/11 02:18:39;;;;;;;13.70;3.25;;;7.80;99.90;;;;;;6280268;22;20073;-88
2022/10/11 02:21:08;;;;;;;13.93;3.20;;;7.80;99.90;;;;;;6252394;22;20130;-88
2022/10/11 02:23:38;;;;;;;14.82;2.95;;;7.80;99.90;;;;;;6253327;22;20464;-87
2022/10/11 02:26:07;;;;;;;16.52;2.65;;;7.80;99.90;;;;;;6280173;22;20027;-88
2022/10/11 02:28:36;;;;;;;17.08;3.47;;;9.10;99.90;;;;;;6227393;22;20023;-87
2022/10/11 02:31:05;;;;;;;16.73;2.67;;;7.70;99.90;;;;;;6254297;22;20034;-87
2022/10/11 02:33:37;;;;;;;17.63;2.90;;;7.80;99.90;;;;;;6284110;22;20108;-88
2022/10/11 02:36:17;;;;;;;23.30;4.03;;;9.00;99.90;;;;;;6291344;22;20039;-88
2022/10/11 02:38:48;;;;;;;20.10;3.00;;;8.00;99.90;;;;;;6294344;22;20020;-87
2022/10/11 02:41:23;;;;;;;16.02;2.90;;;8.50;99.90;;;;;;6264304;22;20019;-87
2022/10/11 02:44:16;;;;;;;14.45;2.75;;;7.70;99.90;;;;;;6233813;22;20015;-87
2022/10/11 02:46:44;;;;;;;13.77;2.90;;;8.00;99.90;;;;;;6258953;22;20016;-87
2022/10/11 02:49:11;;;;;;;11.30;2.83;;;8.80;99.90;;;;;;6269960;22;20024;-87
2022/10/11 02:51:41;;;;;;;16.95;3.15;;;8.60;99.90;;;;;;6285202;22;20012;-87
2022/10/11 02:54:06;;;;;;;20.27;3.03;;;7.30;99.90;;;;;;6227928;22;20344;-87
2022/10/11 02:56:32;;;;;;;14.18;2.60;;;7.70;99.90;;;;;;6252536;22;20023;-87
2022/10/11 02:58:58;;;;;;;16.55;3.13;;;9.10;99.90;;;;;;6253528;22;20012;-87
2022/10/11 03:01:24;;;;;;;16.33;3.42;;;8.70;99.90;;;;;;6255209;22;20082;-87
2022/10/11 03:03:50;;;;;;;20.30;3.28;;;7.60;99.90;;;;;;6278600;22;20015;-86
2022/10/11 03:06:15;;;;;;;18.98;3.47;;;8.10;99.90;;;;;;6251423;22;20018;-87
2022/10/11 03:08:41;;;;;;;14.43;3.42;;;7.60;99.90;;;;;;6252269;22;20096;-86
2022/10/11 03:11:07;;;;;;;18.17;3.45;;;7.50;99.90;;;;;;6279193;22;20515;-87
2022/10/11 03:13:33;;;;;;;15.45;3.53;;;8.60;99.90;;;;;;6227466;22;20111;-87
2022/10/11 03:15:59;;;;;;;19.25;3.40;;;7.50;99.90;;;;;;6226605;22;20691;-87
2022/10/11 03:18:25;;;;;;;14.18;3.45;;;8.10;99.90;;;;;;6256095;22;20027;-88
2022/10/11 03:20:50;;;;;;;20.80;3.28;;;7.50;99.90;;;;;;6256537;22;20090;-87
2022/10/11 03:23:16;;;;;;;22.95;3.22;;;7.50;99.90;;;;;;6234378;22;20059;-87
2022/10/11 03:25:44;;;;;;;24.30;3.42;;;8.90;99.90;;;;;;6240893;22;20026;-86
2022/10/11 03:28:10;;;;;;;16.05;2.92;;;7.40;99.90;;;;;;6270308;22;20087;-87
2022/10/11 03:30:35;;;;;;;17.05;3.30;;;8.40;99.90;;;;;;6258692;22;20022;-87
2022/10/11 03:33:01;;;;;;;15.93;2.95;;;7.30;99.90;;;;;;6252163;22;20012;-88
2022/10/11 03:35:27;;;;;;;13.68;2.92;;;7.30;99.90;;;;;;6226157;22;20086;-87
2022/10/11 03:37:53;;;;;;;19.52;3.58;;;7.30;99.90;;;;;;6278884;22;20422;-86
2022/10/11 03:40:18;;;;;;;23.90;3.65;;;7.30;99.90;;;;;;6251526;22;20107;-87
2022/10/11 03:42:44;;;;;;;22.17;4.20;;;7.30;99.90;;;;;;6278303;22;20448;-87
2022/10/11 03:45:10;;;;;;;11.68;2.63;;;7.30;99.90;;;;;;6278540;22;20016;-87
2022/10/11 03:47:39;;;;;;;17.92;3.22;;;8.00;99.90;;;;;;6252319;22;20019;-86
2022/10/11 03:50:07;;;;;;;18.17;3.15;;;7.20;99.90;;;;;;6251427;22;20019;-86
2022/10/11 03:52:34;;;;;;;22.38;3.67;;;6.30;99.90;;;;;;6226487;22;20023;-87
2022/10/11 03:54:59;;;;;;;16.73;3.22;;;7.80;99.90;;;;;;6251549;22;20020;-87
2022/10/11 03:57:27;;;;;;;20.27;2.97;;;6.60;99.90;;;;;;6230457;22;20026;-87
2022/10/11 03:59:53;;;;;;;22.83;2.83;;;6.20;99.90;;;;;;6286175;22;20016;-86
2022/10/11 04:02:20;;;;;;;14.82;3.30;;;8.50;99.90;;;;;;6255419;22;20471;-86
2022/10/11 04:04:46;;;;;;;23.83;3.90;;;7.50;99.90;;;;;;6253264;22;20076;-86
2022/10/11 04:07:11;;;;;;;22.58;3.10;;;7.20;99.90;;;;;;6278553;22;20455;-87
2022/10/11 04:09:41;;;;;;;17.73;3.55;;;7.50;99.90;;;;;;6279893;22;20011;-87
2022/10/11 04:12:07;;;;;;;25.55;3.30;;;7.20;99.90;;;;;;6251531;22;20389;-88
2022/10/11 04:14:33;;;;;;;24.48;3.22;;;6.90;99.90;;;;;;6225877;22;20015;-88
2022/10/11 04:16:58;;;;;;;13.95;2.50;;;8.10;99.90;;;;;;6226623;22;20020;-88
2022/10/11 04:19:24;;;;;;;18.45;3.10;;;7.30;99.90;;;;;;6227597;22;20016;-87
2022/10/11 04:21:50;;;;;;;19.88;3.15;;;7.10;99.90;;;;;;6252056;22;20432;-87
2022/10/11 04:24:16;;;;;;;21.65;3.17;;;7.90;99.90;;;;;;6226404;22;20050;-87
2022/10/11 04:26:42;;;;;;;13.43;3.08;;;8.50;99.90;;;;;;6251431;22;20083;-88
2022/10/11 04:29:09;;;;;;;21.08;3.05;;;7.10;99.90;;;;;;6251673;22;20379;-88
2022/10/11 04:31:34;;;;;;;16.95;3.22;;;8.60;99.90;;;;;;6251521;22;20490;-87
2022/10/11 04:34:00;;;;;;;15.60;3.03;;;7.10;99.90;;;;;;6226100;22;20016;-87
2022/10/11 04:36:26;;;;;;;20.20;2.92;;;8.20;99.90;;;;;;6280263;22;20019;-86
2022/10/11 04:38:54;;;;;;;21.20;3.03;;;8.60;99.90;;;;;;6226849;22;20011;-87
2022/10/11 04:41:23;;;;;;;16.27;2.90;;;8.40;99.90;;;;;;6280058;22;20339;-87
2022/10/11 04:43:49;;;;;;;20.05;3.97;;;8.00;99.90;;;;;;6252954;22;20047;-86
2022/10/11 04:46:15;;;;;;;10.23;2.80;;;7.40;99.90;;;;;;6278351;22;20748;-86
2022/10/11 04:48:41;;;;;;;16.52;2.60;;;6.80;99.90;;;;;;6250725;22;20070;-86
2022/10/11 04:51:06;;;;;;;18.70;3.33;;;7.20;99.90;;;;;;6251932;22;20121;-87
2022/10/11 04:53:32;;;;;;;15.23;2.40;;;7.10;99.90;;;;;;6251717;22;20309;-87
2022/10/11 04:56:04;;;;;;;19.52;3.70;;;6.90;99.90;;;;;;6251418;22;20047;-86
2022/10/11 04:58:34;;;;;;;16.02;2.90;;;7.10;99.90;;;;;;6226634;22;20031;-87
2022/10/11 05:01:00;;;;;;;14.85;2.67;;;7.10;99.90;;;;;;6251247;22;20043;-86
2022/10/11 05:03:25;;;;;;;20.67;3.10;;;6.90;99.90;;;;;;6250258;22;20012;-86
2022/10/11 05:05:52;;;;;;;17.27;2.60;;;7.40;99.90;;;;;;6253415;22;20309;-84
2022/10/11 05:08:18;;;;;;;18.17;3.58;;;7.20;99.90;;;;;;6254458;22;20482;-86
2022/10/11 05:11:02;;;;;;;12.40;2.88;;;7.20;99.90;;;;;;6283851;22;20012;-85
2022/10/11 05:13:29;;;;;;;14.30;3.20;;;7.80;99.90;;;;;;6251849;22;20016;-84
2022/10/11 05:15:58;;;;;;;16.63;2.95;;;7.20;99.90;;;;;;6249654;22;20019;-85
2022/10/11 05:18:24;;;;;;;18.33;2.85;;;8.00;99.90;;;;;;6250544;22;20046;-84
2022/10/11 05:21:05;;;;;;;13.82;2.90;;;8.20;99.90;;;;;;6251366;22;20022;-83
2022/10/11 05:23:32;;;;;;;15.05;2.67;;;7.50;99.90;;;;;;6281260;22;20078;-88
2022/10/11 05:25:58;;;;;;;12.82;3.10;;;6.90;99.90;;;;;;6253036;22;20352;-88
2022/10/11 05:28:25;;;;;;;21.85;3.05;;;8.60;99.90;;;;;;6253984;22;20094;-88
2022/10/11 05:30:51;;;;;;;13.73;3.20;;;7.10;99.90;;;;;;6254532;22;20015;-88
2022/10/11 05:33:19;;;;;;;21.92;2.83;;;7.20;99.90;;;;;;6254529;22;20175;-88
2022/10/11 05:35:45;;;;;;;18.23;3.20;;;8.60;99.90;;;;;;6256853;22;20011;-88
2022/10/11 05:38:16;;;;;;;12.27;2.65;;;8.20;99.90;;;;;;6255325;22;20019;-88
2022/10/11 05:40:42;;;;;;;19.63;2.90;;;7.20;99.90;;;;;;6258216;22;20317;-89
2022/10/11 05:43:08;;;;;;;20.88;3.30;;;7.30;99.90;;;;;;6292754;22;20069;-87
2022/10/11 05:45:38;;;;;;;16.63;3.13;;;7.30;99.90;;;;;;6255895;22;20436;-87
2022/10/11 05:48:04;;;;;;;14.30;2.53;;;7.30;99.90;;;;;;6280542;22;20016;-89
2022/10/11 05:50:34;;;;;;;16.30;3.65;;;7.40;99.90;;;;;;6279339;22;20016;-88
2022/10/11 05:53:00;;;;;;;18.20;2.83;;;8.10;99.90;;;;;;6252328;22;20020;-87
2022/10/11 05:55:26;;;;;;;10.90;3.03;;;7.40;99.90;;;;;;6280248;22;20008;-88
2022/10/11 05:57:56;;;;;;;14.45;2.83;;;7.40;99.90;;;;;;6254203;22;20309;-88
2022/10/11 06:00:23;;;;;;;15.43;2.92;;;7.50;99.90;;;;;;6280187;22;20023;-88
2022/10/11 06:02:58;;;;;;;14.02;3.42;;;7.40;99.90;;;;;;6283627;22;20051;-89
2022/10/11 06:05:27;;;;;;;21.83;3.22;;;7.30;99.90;;;;;;6266220;22;20019;-87
2022/10/11 06:07:52;;;;;;;19.63;3.85;;;8.20;99.90;;;;;;6242377;22;20016;-82
2022/10/11 06:10:18;;;;;;;15.38;2.90;;;7.50;99.90;;;;;;6294857;22;20016;-87
2022/10/11 06:12:44;;;;;;;14.85;2.85;;;7.50;99.90;;;;;;6275221;22;20038;-87
2022/10/11 06:15:10;;;;;;;25.10;3.92;;;7.50;99.90;;;;;;6252071;22;20034;-88
2022/10/11 06:17:36;;;;;;;17.67;2.95;;;7.50;99.90;;;;;;6277781;22;20004;-88
2022/10/11 06:20:04;;;;;;;13.43;3.35;;;9.10;99.90;;;;;;6290504;22;20023;-90
2022/10/11 06:22:33;;;;;;;18.67;3.00;;;7.50;99.90;;;;;;6247564;22;20046;-88
2022/10/11 06:24:59;;;;;;;14.75;3.05;;;7.60;99.90;;;;;;6275273;22;20004;-89
2022/10/11 06:27:25;;;;;;;17.40;4.00;;;8.00;99.90;;;;;;6237518;22;20019;-88
2022/10/11 06:29:51;;;;;;;18.35;3.65;;;7.70;99.90;;;;;;6263617;22;20544;-87
2022/10/11 06:32:19;;;;;;;14.68;3.22;;;9.30;99.90;;;;;;6268999;22;20027;-88
2022/10/11 06:34:45;;;;;;;;;;;8.50;99.90;;;;;;6292665;22;20750;-88
2022/10/11 06:37:11;;;;;;;17.80;3.05;;;7.80;99.90;;;;;;6257994;22;19915;-88
2022/10/11 06:39:37;;;;;;;15.38;2.65;;;7.80;99.90;;;;;;6238056;22;20016;-86
2022/10/11 06:42:05;;;;;;;15.38;2.70;;;9.20;99.90;;;;;;6266984;22;20024;-87
2022/10/11 06:44:35;;;;;;;;;;;7.90;99.90;;;;;;6263753;22;20022;-90
2022/10/11 06:47:00;;;;;;;20.40;3.78;;;7.90;99.90;;;;;;6234810;23;19915;-89
2022/10/11 06:49:26;;;;;;;15.55;2.70;;;9.20;99.90;;;;;;6229132;23;20020;-90
2022/10/11 06:51:52;;;;;;;19.10;3.33;;;9.00;99.90;;;;;;6238868;23;20007;-90
2022/10/11 06:54:18;;;;;;;17.33;2.63;;;8.70;99.90;;;;;;6263122;22;20016;-82
2022/10/11 06:56:44;;;;;;;18.50;3.35;;;8.20;99.90;;;;;;6263783;23;20043;-86
2022/10/11 06:59:19;;;;;;;23.58;3.83;;;9.60;99.90;;;;;;6264290;23;20074;-91
2022/10/11 07:01:48;;;;;;;19.23;3.78;;;8.30;99.90;;;;;;6227215;23;20327;-88
2022/10/11 07:04:13;;;;;;;19.45;3.15;;;9.60;99.90;;;;;;6257975;23;20071;-89
2022/10/11 07:06:41;;;;;;;21.50;3.65;;;10.00;99.90;;;;;;6262817;23;20064;-90
2022/10/11 07:09:07;;;;;;;9.73;2.80;;;8.70;99.90;;;;;;6235493;23;20016;-88
2022/10/11 07:11:34;;;;;;;16.67;2.90;;;8.70;99.90;;;;;;6251765;23;20016;-85
2022/10/11 07:14:03;;;;;;;18.80;3.60;;;8.80;99.90;;;;;;6226015;23;20019;-86
2022/10/11 07:16:29;;;;;;;14.20;3.30;;;8.30;99.90;;;;;;6252565;22;20012;-87
2022/10/11 07:18:59;;;;;;;12.75;3.30;;;8.20;99.90;;;;;;6265532;23;20050;-86
2022/10/11 07:21:25;;;;;;;17.83;3.47;;;9.00;99.90;;;;;;6223872;23;20012;-89
2022/10/11 07:23:51;;;;;;;15.52;3.03;;;9.10;99.90;;;;;;6264238;23;20016;-87
2022/10/11 07:26:18;;;;;;;20.85;4.07;;;9.30;99.90;;;;;;6231982;23;20047;-86
2022/10/11 07:28:44;;;;;;;16.75;3.30;;;10.10;99.90;;;;;;6255852;22;20027;-88
2022/10/11 07:31:16;;;;;;;14.77;3.33;;;11.10;99.90;;;;;;6226856;23;20042;-90
2022/10/11 07:33:42;;;;;;;14.55;2.88;;;10.00;99.90;;;;;;6249008;23;20035;-88
2022/10/11 07:36:08;;;;;;;21.75;3.50;;;10.10;99.90;;;;;;6247799;22;20039;-90
2022/10/11 07:38:37;;;;;;;13.73;3.28;;;9.90;99.90;;;;;;6220752;23;20016;-88
2022/10/11 07:41:04;;;;;;;20.60;3.80;;;10.30;99.90;;;;;;6247420;23;20080;-85
2022/10/11 07:43:30;;;;;;;10.57;3.15;;;10.30;99.90;;;;;;6256354;22;20016;-87
2022/10/11 07:45:59;;;;;;;17.67;3.30;;;10.40;99.90;;;;;;6255273;23;20023;-89
2022/10/11 07:48:25;;;;;;;18.42;3.10;;;10.40;99.90;;;;;;6227500;23;20026;-88
2022/10/11 07:50:51;;;;;;;13.60;3.05;;;10.50;99.90;;;;;;6251627;23;20040;-88
2022/10/11 07:53:17;;;;;;;12.00;3.17;;;10.60;99.90;;;;;;6247652;23;20012;-89
2022/10/11 07:55:42;;;;;;;17.45;3.28;;;11.10;99.90;;;;;;6248445;23;20051;-91
2022/10/11 07:58:10;;;;;;;13.13;3.25;;;11.20;99.90;;;;;;6246684;23;20016;-90
2022/10/11 08:00:44;;;;;;;18.70;3.20;;;10.90;99.90;;;;;;6223771;23;20023;-92
2022/10/11 08:03:14;;;;;;;26.38;4.00;;;11.00;99.90;;;;;;6254226;23;20460;-90
2022/10/11 08:05:40;;;;;;;16.23;2.75;;;11.10;99.90;;;;;;6226146;23;20016;-89
2022/10/11 08:08:09;;;;;;;13.05;3.22;;;11.30;99.90;;;;;;6243586;23;20041;-90
2022/10/11 08:10:39;;;;;;;14.82;3.03;;;11.40;99.90;;;;;;6256422;23;20012;-86
2022/10/11 08:23:29;;;;;;;13.35;3.28;;;11.70;99.90;;;;;;6211441;22;20038;-90
2022/10/11 08:25:59;;;;;;;13.15;3.10;;;12.80;99.90;;;;;;6202261;22;20081;-88
2022/10/11 08:28:24;;;;;;;13.38;3.33;;;12.30;99.90;;;;;;6278449;22;20011;-89
2022/10/11 08:30:54;;;;;;;13.25;2.85;;;12.00;99.90;;;;;;6227157;22;20011;-89
2022/10/11 08:33:22;;;;;;;10.77;2.67;;;12.20;99.90;;;;;;6230044;22;20350;-89
2022/10/11 08:35:49;;;;;;;15.85;2.97;;;12.30;99.90;;;;;;6253340;22;20051;-85
2022/10/11 08:38:15;;;;;;;23.23;3.72;;;12.70;99.90;;;;;;6251124;22;20081;-90
2022/10/11 08:40:46;;;;;;;15.63;3.58;;;14.10;99.90;;;;;;6226839;22;20098;-88
2022/10/11 08:43:23;;;;;;;14.00;2.97;;;14.20;99.90;;;;;;6251457;22;20507;-87
2022/10/11 08:45:53;;;;;;;13.27;2.90;;;13.00;99.90;;;;;;6225456;22;20047;-86
2022/10/11 08:48:39;;;;;;;17.80;2.90;;;13.80;99.90;;;;;;6225341;22;20019;-88
2022/10/11 08:51:33;;;;;;;14.57;3.03;;;13.40;99.90;;;;;;6282454;22;20343;-87
2022/10/11 08:54:13;;;;;;;14.70;3.10;;;15.00;99.90;;;;;;6233255;22;20027;-89
2022/10/11 08:56:40;;;;;;;15.10;3.55;;;13.70;99.90;;;;;;6254352;22;20020;-88
2022/10/11 08:59:12;;;;;;;17.20;3.60;;;13.90;99.90;;;;;;6229059;22;20050;-90
2022/10/11 09:01:51;;;;;;;13.05;3.10;;;14.40;99.90;;;;;;6259494;22;20099;-87
2022/10/11 09:04:17;;;;;;;;;;;13.80;99.90;;;;;;6255147;22;20042;-88
2022/10/11 09:06:42;;;;;;;14.35;3.42;;;14.30;99.90;;;;;;6283987;22;19915;-88
2022/10/11 09:09:50;;;;;;;15.60;2.97;;;14.40;99.90;;;;;;6257945;22;20016;-88
2022/10/11 09:12:31;;;;;;;16.40;3.85;;;14.40;99.90;;;;;;6266064;22;20066;-89
2022/10/11 09:15:02;;;;;;;13.10;3.00;;;14.70;99.90;;;;;;6269642;22;20182;-87
2022/10/11 09:17:50;;;;;;;14.10;3.40;;;14.80;99.90;;;;;;6269321;22;20026;-89
2022/10/11 09:20:31;;;;;;;15.05;3.13;;;14.90;99.90;;;;;;6265110;22;20023;-88
2022/10/11 09:23:30;;;;;;;11.75;2.80;;;15.00;99.90;;;;;;6260570;22;20039;-87
2022/10/11 09:26:16;;;;;;;17.40;3.17;;;15.10;99.90;;;;;;6260377;22;20047;-90
2022/10/11 09:29:10;;;;;;;17.35;3.38;;;15.30;99.90;;;;;;6284103;22;20087;-89
2022/10/11 09:31:36;;;;;;;11.80;2.92;;;15.80;99.90;;;;;;6230995;22;20023;-89
2022/10/11 09:34:13;;;;;;;13.80;2.50;;;16.90;99.90;;;;;;6254094;22;20095;-85
2022/10/11 09:36:45;;;;;;;14.40;3.00;;;15.70;99.90;;;;;;6253268;22;20015;-86
2022/10/11 09:39:35;;;;;;;18.25;4.03;;;15.70;99.90;;;;;;6253938;22;20402;-90
2022/10/11 09:42:05;;;;;;;;;;;15.70;99.90;;;;;;6282785;22;20024;-87
2022/10/11 09:44:49;;;;;;;16.73;3.67;;;16.30;99.90;;;;;;6232264;22;19916;-86
2022/10/11 09:47:33;;;;;;;20.33;3.35;;;16.00;99.90;;;;;;6269657;22;20010;-90
2022/10/11 09:50:07;;;;;;;17.30;2.75;;;15.80;99.90;;;;;;6237389;22;20347;-90
2022/10/11 09:52:33;;;;;;;14.25;2.60;;;16.00;99.90;;;;;;6245942;22;20020;-89
2022/10/11 09:55:04;;;;;;;15.32;3.05;;;16.60;99.90;;;;;;6232944;22;20011;-87
2022/10/11 09:57:33;;;;;;;12.60;2.63;;;17.50;99.90;;;;;;6252866;22;20019;-86
2022/10/11 10:00:20;;;;;;;15.35;3.33;;;16.70;99.90;;;;;;6254338;22;20064;-89
2022/10/11 10:02:55;;;;;;;11.07;2.58;;;16.80;99.90;;;;;;6228264;22;20022;-86
2022/10/11 10:05:36;;;;;;;11.40;2.45;;;17.00;99.90;;;;;;6228692;22;20105;-86
2022/10/11 10:08:21;;;;;;;18.27;2.95;;;17.10;99.90;;;;;;6255516;22;20352;-88
2022/10/11 10:11:06;;;;;;;11.73;2.92;;;17.90;99.90;;;;;;6293167;22;20023;-87
2022/10/11 10:13:50;;;;;;;15.75;3.00;;;17.70;99.90;;;;;;6267212;22;20436;-88
2022/10/11 10:16:35;;;;;;;23.90;3.15;;;17.70;99.90;;;;;;6281018;22;20070;-88
2022/10/11 10:19:05;;;;;;;8.60;2.40;;;17.80;99.90;;;;;;6255449;22;20015;-86
2022/10/11 10:21:36;;;;;;;12.50;2.90;;;17.70;99.90;;;;;;6266547;22;20050;-89
2022/10/11 10:24:16;;;;;;;12.60;2.70;;;17.50;99.90;;;;;;6239320;22;20093;-88
2022/10/11 10:27:04;;;;;;;12.45;3.08;;;17.60;99.90;;;;;;6251614;22;20376;-87
2022/10/11 10:30:10;;;;;;;12.77;2.55;;;17.70;99.90;;;;;;6255747;22;20018;-88
2022/10/11 10:32:52;;;;;;;11.27;2.45;;;17.70;99.90;;;;;;6283498;22;20041;-86
2022/10/11 10:35:32;;;;;;;9.82;2.85;;;18.00;99.90;;;;;;6242494;22;20143;-83
2022/10/11 10:38:24;;;;;;;15.00;2.47;;;18.00;99.90;;;;;;6287329;22;20077;-86
2022/10/11 10:41:00;;;;;;;12.48;2.88;;;18.60;99.90;;;;;;6261377;22;20016;-85
2022/10/11 10:43:33;;;;;;;8.73;2.75;;;18.60;99.90;;;;;;6256888;22;20059;-85
2022/10/11 10:46:38;;;;;;;13.50;2.67;;;18.80;99.90;;;;;;6239299;22;20077;-84
2022/10/11 10:49:23;;;;;;;10.15;2.45;;;18.90;99.90;;;;;;6279878;22;20086;-83
2022/10/11 10:52:19;;;;;;;13.35;2.55;;;19.20;99.10;;;;;;6254482;22;20012;-84
2022/10/11 10:54:47;;;;;;;17.60;2.97;;;19.40;98.80;;;;;;6260130;22;20015;-87
2022/10/11 10:57:53;;;;;;;16.10;3.65;;;19.10;98.20;;;;;;6243271;22;20023;-84
2022/10/11 11:00:20;;;;;;;8.93;2.63;;;19.40;99.00;;;;;;6292186;22;20045;-86
2022/10/11 11:02:55;;;;;;;10.82;2.97;;;19.80;98.10;;;;;;6260586;22;20020;-85
2022/10/11 11:05:43;;;;;;;11.73;2.40;;;19.70;98.00;;;;;;6238019;22;20022;-85
2022/10/11 11:08:18;;;;;;;12.63;3.00;;;19.40;96.40;;;;;;6260952;22;20358;-86
2022/10/11 11:11:03;;;;;;;12.90;2.55;;;19.10;96.60;;;;;;6289932;22;20015;-86
2022/10/11 11:13:37;;;;;;;19.52;2.50;;;18.50;96.20;;;;;;6238085;22;20030;-88
2022/10/11 11:16:16;;;;;;;10.32;2.55;;;17.90;97.00;;;;;;6235295;22;20077;-85
2022/10/11 11:18:54;;;;;;;8.68;2.65;;;17.60;97.20;;;;;;6289190;22;20039;-84
2022/10/11 11:22:14;;;;;;;12.43;2.65;;;17.10;98.20;;;;;;6291562;22;20059;-87
2022/10/11 11:25:07;;;;;;;15.95;2.53;;;16.70;98.70;;;;;;6224048;22;20020;-84
2022/10/11 11:28:08;;;;;;;10.75;2.40;;;16.30;99.80;;;;;;6288409;22;20308;-85
2022/10/11 11:30:55;;;;;;;9.05;2.28;;;16.00;99.90;;;;;;6289443;22;20020;-84
2022/10/11 11:33:33;;;;;;;13.70;2.97;;;15.70;99.90;;;;;;6255138;22;20015;-85
2022/10/11 11:36:04;;;;;;;13.67;3.13;;;15.60;99.90;;;;;;6229535;22;20023;-85
2022/10/11 11:38:51;;;;;;;9.88;2.10;;;15.50;99.90;;;;;;6282356;22;20007;-86
2022/10/11 11:41:27;;;;;;;10.00;2.55;;;15.50;99.90;;;;;;6278619;22;20087;-85
2022/10/11 11:44:43;;;;;;;14.48;2.75;;;15.80;99.90;;;;;;6280377;22;20542;-87
2022/10/11 11:47:12;;;;;;;15.15;2.72;;;15.50;99.90;;;;;;6243167;22;20416;-84
2022/10/11 11:49:48;;;;;;;13.95;2.53;;;15.70;99.90;;;;;;6251497;22;20019;-85
2022/10/11 11:52:25;;;;;;;13.32;3.00;;;15.70;99.90;;;;;;6252398;22;20047;-84
2022/10/11 11:55:07;;;;;;;16.70;2.60;;;15.70;99.90;;;;;;6279278;22;20011;-84
2022/10/11 11:57:59;;;;;;;11.10;2.50;;;15.80;99.90;;;;;;6284788;22;20100;-83
2022/10/11 12:00:56;;;;;;;14.55;2.30;;;15.80;99.90;;;;;;6289353;22;20016;-86
2022/10/11 12:03:30;;;;;;;16.63;2.80;;;15.80;99.90;;;;;;6294483;22;20014;-85
2022/10/11 12:06:20;;;;;;;13.73;2.47;;;15.60;99.90;;;;;;6271100;22;20016;-86
2022/10/11 12:09:00;;;;;;;8.32;1.83;;;15.50;99.90;;;;;;6246135;22;20020;-82
2022/10/11 12:11:43;;;;;;;10.20;2.30;;;15.30;99.90;;;;;;6264271;22;20328;-84
2022/10/11 12:14:27;;;;;;;14.18;2.67;;;15.30;99.90;;;;;;6284278;22;20040;-84
2022/10/11 12:17:18;;;;;;;11.55;2.38;;;15.20;99.90;;;;;;6286769;22;20015;-84
2022/10/11 12:20:19;;;;;;;15.32;2.97;;;15.20;99.90;;;;;;6234226;22;20016;-83
2022/10/11 12:22:48;;;;;;;11.70;2.40;;;15.20;99.90;;;;;;6160900;22;20065;-84
2022/10/11 12:25:14;;;;;;;13.90;2.60;;;15.20;99.90;;;;;;6247362;22;20016;-82
2022/10/11 12:27:43;;;;;;;17.15;2.90;;;15.20;99.90;;;;;;6275695;22;20023;-84
2022/10/11 12:30:43;;;;;;;18.95;3.65;;;15.20;99.90;;;;;;6275353;22;20018;-83
2022/10/11 12:33:31;;;;;;;11.32;2.35;;;15.20;99.90;;;;;;6247926;22;20479;-84
2022/10/11 12:36:49;;;;;;;14.63;2.30;;;15.20;99.90;;;;;;6248806;22;20016;-83
2022/10/11 12:39:18;;;;;;;11.48;2.38;;;15.20;99.90;;;;;;6270759;22;20019;-84
2022/10/11 12:41:47;;;;;;;12.98;2.72;;;15.30;99.90;;;;;;6222370;22;20106;-83
2022/10/11 12:44:27;;;;;;;11.88;2.45;;;15.60;99.90;;;;;;6251961;22;20344;-83
2022/10/11 12:46:59;;;;;;;11.20;2.35;;;15.30;99.90;;;;;;6278614;22;20016;-83
2022/10/11 12:49:45;;;;;;;13.48;2.40;;;15.30;99.90;;;;;;6252667;22;20019;-83
2022/10/11 12:52:16;;;;;;;13.75;2.70;;;15.40;99.90;;;;;;6248373;22;20015;-85
2022/10/11 12:55:16;;;;;;;9.85;2.17;;;15.50;99.90;;;;;;6276058;22;20066;-83
2022/10/11 12:57:46;;;;;;;9.80;2.13;;;15.50;99.90;;;;;;6278030;22;20258;-84
2022/10/11 13:00:29;;;;;;;6.22;1.88;;;15.70;99.90;;;;;;6225895;22;20027;-83
2022/10/11 13:02:58;;;;;;;10.57;2.10;;;15.80;99.90;;;;;;6260834;22;20016;-83
2022/10/11 13:05:44;;;;;;;8.88;2.03;;;15.90;99.90;;;;;;6250656;22;20011;-83
2022/10/11 13:08:30;;;;;;;12.82;2.58;;;15.90;99.90;;;;;;6275359;22;20007;-84
2022/10/11 13:11:00;;;;;;;13.13;2.30;;;15.90;99.90;;;;;;6275629;22;20011;-83
2022/10/11 13:13:30;;;;;;;7.43;2.30;;;16.10;99.90;;;;;;6277129;22;20038;-83
2022/10/11 13:15:59;;;;;;;10.70;2.35;;;15.90;99.90;;;;;;6248771;22;20020;-84
2022/10/11 13:18:25;;;;;;;11.02;2.38;;;15.80;99.90;;;;;;6275743;22;20050;-82
2022/10/11 13:20:51;;;;;;;12.07;1.95;;;15.80;99.90;;;;;;6275181;22;20344;-83
2022/10/11 13:23:33;;;;;;;15.85;2.38;;;15.70;99.90;;;;;;6221784;22;20023;-85
2022/10/11 13:26:00;;;;;;;7.80;1.98;;;15.70;99.90;;;;;;6275788;22;20020;-85
2022/10/11 13:28:28;;;;;;;14.75;2.28;;;15.60;99.90;;;;;;6248055;22;20015;-84
2022/10/11 13:30:57;;;;;;;12.25;2.30;;;15.70;99.90;;;;;;6272171;22;20054;-84
2022/10/11 13:33:30;;;;;;;13.75;2.40;;;15.60;99.90;;;;;;6222450;22;20464;-83